Time;durP1;ratioP1;P1;durP2;ratioP2;P2;SDS_P1;SDS_P2;PMS_P1;PMS_P2;Temp;Humidity;BMP_temperature;BMP_pressure;BME280_temperature;BME280_humidity;BME280_pressure;Samples;Min_cycle;Max_cycle;Signal;HPM_P1;HPM_P2
2021/12/30 00:01:03;;;;;;;4.07;1.97;;;12.60;99.90;;;;;;5020867;28;20211;-89
2021/12/30 00:03:28;;;;;;;2.20;2.00;;;12.70;99.90;;;;;;5012974;28;20179;-89
2021/12/30 00:05:54;;;;;;;2.23;1.83;;;12.60;99.90;;;;;;5027222;28;20272;-90
2021/12/30 00:08:22;;;;;;;3.07;1.90;;;12.70;99.90;;;;;;5000755;28;20207;-89
2021/12/30 00:10:48;;;;;;;3.93;1.93;;;12.70;99.90;;;;;;5015305;28;20222;-90
2021/12/30 00:13:14;;;;;;;2.60;1.90;;;12.60;99.90;;;;;;5021289;28;20199;-89
2021/12/30 00:15:40;;;;;;;1.73;1.63;;;12.70;99.90;;;;;;5021818;28;20298;-90
2021/12/30 00:18:08;;;;;;;3.23;1.90;;;12.70;99.90;;;;;;5015369;28;20199;-90
2021/12/30 00:20:34;;;;;;;1.93;1.77;;;12.70;99.90;;;;;;5013882;28;20211;-89
2021/12/30 00:23:03;;;;;;;3.40;1.80;;;12.60;99.90;;;;;;5006782;28;20202;-89
2021/12/30 00:25:37;;;;;;;2.43;1.80;;;12.60;99.90;;;;;;5021674;28;20676;-89
2021/12/30 00:28:04;;;;;;;2.00;1.90;;;12.70;99.90;;;;;;5004118;28;20690;-89
2021/12/30 00:30:30;;;;;;;1.93;1.77;;;12.70;99.90;;;;;;4991180;28;20300;-89
2021/12/30 00:32:56;;;;;;;2.23;1.70;;;12.80;99.90;;;;;;4989755;28;20635;-90
2021/12/30 00:35:22;;;;;;;1.60;1.50;;;12.80;99.90;;;;;;5013938;28;20176;-89
2021/12/30 00:37:48;;;;;;;1.80;1.70;;;12.80;99.90;;;;;;5052912;28;20226;-90
2021/12/30 00:40:14;;;;;;;1.60;1.50;;;12.90;99.90;;;;;;5040241;28;20267;-91
2021/12/30 00:42:40;;;;;;;1.87;1.70;;;13.00;99.90;;;;;;5024234;28;20198;-89
2021/12/30 00:45:06;;;;;;;1.70;1.60;;;13.00;99.90;;;;;;5011634;28;20686;-90
2021/12/30 00:47:31;;;;;;;1.83;1.53;;;12.90;99.90;;;;;;5022351;28;20262;-89
2021/12/30 00:49:57;;;;;;;1.70;1.60;;;12.80;99.90;;;;;;4997457;28;20243;-90
2021/12/30 00:52:24;;;;;;;1.80;1.70;;;12.90;99.90;;;;;;5009817;28;20193;-89
2021/12/30 00:54:52;;;;;;;1.60;1.50;;;12.90;99.90;;;;;;5020766;28;20196;-90
2021/12/30 00:57:17;;;;;;;4.37;1.80;;;12.90;99.90;;;;;;5003338;28;20207;-90
2021/12/30 00:59:43;;;;;;;2.30;1.67;;;12.90;99.90;;;;;;4997026;28;20221;-89
2021/12/30 01:02:09;;;;;;;2.33;1.40;;;12.90;99.90;;;;;;5019529;28;20203;-90
2021/12/30 01:04:35;;;;;;;2.10;1.90;;;12.80;99.90;;;;;;5006692;28;20200;-90
2021/12/30 01:07:01;;;;;;;1.73;1.53;;;12.90;99.90;;;;;;5000955;28;20266;-89
2021/12/30 01:09:27;;;;;;;1.60;1.50;;;12.90;99.90;;;;;;5015808;28;20285;-89
2021/12/30 01:11:54;;;;;;;3.00;1.70;;;12.90;99.90;;;;;;5016592;28;20204;-90
2021/12/30 01:14:24;;;;;;;2.10;1.50;;;12.90;99.90;;;;;;5013459;28;20267;-90
2021/12/30 01:16:54;;;;;;;4.00;1.80;;;13.00;99.90;;;;;;5018030;28;20203;-90
2021/12/30 01:21:48;;;;;;;2.83;1.80;;;12.90;99.90;;;;;;5014837;28;20630;-90
2021/12/30 01:24:14;;;;;;;3.23;1.90;;;12.90;99.90;;;;;;4987724;28;20558;-90
2021/12/30 01:26:40;;;;;;;2.60;1.60;;;12.80;99.90;;;;;;5015804;28;20195;-89
2021/12/30 01:29:05;;;;;;;2.20;1.63;;;12.90;99.90;;;;;;4999742;28;20236;-89
2021/12/30 01:31:31;;;;;;;2.20;1.97;;;12.90;99.90;;;;;;5018380;28;20207;-89
2021/12/30 01:33:57;;;;;;;3.63;1.80;;;12.90;99.90;;;;;;5016221;28;20659;-90
2021/12/30 01:36:26;;;;;;;2.63;1.80;;;12.90;99.90;;;;;;5003941;28;20746;-90
2021/12/30 01:38:53;;;;;;;2.43;1.90;;;12.90;99.90;;;;;;5016112;28;20200;-89
2021/12/30 01:41:18;;;;;;;2.23;1.60;;;12.90;99.90;;;;;;4996761;28;20193;-89
2021/12/30 01:43:45;;;;;;;2.90;1.53;;;13.00;99.90;;;;;;5018460;28;20208;-89
2021/12/30 01:46:11;;;;;;;2.40;1.73;;;13.10;99.90;;;;;;5012354;28;20270;-90
2021/12/30 01:48:37;;;;;;;2.23;1.50;;;13.00;99.90;;;;;;5015941;28;20571;-89
2021/12/30 01:51:05;;;;;;;1.77;1.57;;;13.10;99.90;;;;;;5029712;28;20202;-90
2021/12/30 01:53:32;;;;;;;1.90;1.57;;;13.20;99.90;;;;;;5018289;28;20201;-90
2021/12/30 01:55:58;;;;;;;1.63;1.53;;;13.10;99.90;;;;;;5014789;28;20224;-90
2021/12/30 01:58:24;;;;;;;3.00;1.70;;;13.10;99.90;;;;;;5030557;28;20189;-92
2021/12/30 02:00:51;;;;;;;1.90;1.77;;;13.10;99.90;;;;;;5021547;28;20253;-90
2021/12/30 02:03:17;;;;;;;2.17;1.50;;;13.00;99.90;;;;;;5014823;28;20222;-89
2021/12/30 02:05:43;;;;;;;3.53;1.70;;;12.90;99.90;;;;;;5025745;28;20177;-91
2021/12/30 02:08:13;;;;;;;1.53;1.43;;;12.90;99.90;;;;;;5022158;28;20215;-91
2021/12/30 02:10:40;;;;;;;1.87;1.67;;;12.90;99.90;;;;;;5004536;28;20214;-90
2021/12/30 02:13:08;;;;;;;2.30;1.80;;;12.90;99.90;;;;;;5015715;28;20275;-89
2021/12/30 02:15:34;;;;;;;2.30;1.47;;;12.90;99.90;;;;;;5022939;28;20192;-89
2021/12/30 02:18:01;;;;;;;1.80;1.60;;;12.90;99.90;;;;;;5011933;28;20668;-91
2021/12/30 02:20:52;;;;;;;2.73;2.23;;;12.90;99.90;;;;;;4997723;28;20213;-90
2021/12/30 02:23:35;;;;;;;1.90;1.80;;;12.90;99.90;;;;;;5013871;28;20248;-90
2021/12/30 02:26:08;;;;;;;1.37;1.30;;;12.90;99.90;;;;;;5011435;28;20247;-90
2021/12/30 02:28:36;;;;;;;2.40;1.73;;;12.90;99.90;;;;;;5014225;28;20192;-89
2021/12/30 02:31:06;;;;;;;3.03;1.73;;;12.90;99.90;;;;;;5020848;28;20197;-89
2021/12/30 02:33:32;;;;;;;1.70;1.50;;;12.70;99.90;;;;;;4983027;28;20217;-89
2021/12/30 02:35:58;;;;;;;2.03;1.70;;;12.70;99.90;;;;;;5011111;28;20227;-89
2021/12/30 02:38:24;;;;;;;2.43;1.63;;;12.70;99.90;;;;;;5017877;28;20557;-89
2021/12/30 02:40:54;;;;;;;3.37;1.97;;;12.70;99.90;;;;;;5033825;28;20216;-89
2021/12/30 02:43:22;;;;;;;2.00;1.70;;;12.70;99.90;;;;;;5015787;28;20191;-90
2021/12/30 02:45:48;;;;;;;2.27;1.73;;;12.70;99.90;;;;;;5022986;28;20184;-89
2021/12/30 02:48:16;;;;;;;1.77;1.60;;;12.70;99.90;;;;;;5019347;28;20202;-89
2021/12/30 02:50:43;;;;;;;5.43;1.80;;;12.60;99.90;;;;;;5001080;28;20208;-89
2021/12/30 02:53:10;;;;;;;3.80;1.90;;;12.60;99.90;;;;;;5015498;28;20184;-89
2021/12/30 02:55:36;;;;;;;2.20;1.90;;;12.50;99.90;;;;;;5018883;28;20703;-89
2021/12/30 02:58:02;;;;;;;3.60;2.07;;;12.60;99.90;;;;;;5002239;28;20226;-89
2021/12/30 03:00:29;;;;;;;3.77;1.80;;;12.60;99.90;;;;;;5022675;28;20199;-89
2021/12/30 03:02:54;;;;;;;2.27;1.90;;;12.60;99.90;;;;;;5019527;28;20203;-89
2021/12/30 03:05:22;;;;;;;1.77;1.63;;;12.60;99.90;;;;;;5009970;28;20186;-89
2021/12/30 03:07:48;;;;;;;2.60;1.73;;;12.60;99.90;;;;;;5022392;28;20180;-89
2021/12/30 03:10:21;;;;;;;3.00;1.90;;;12.70;99.90;;;;;;4999750;28;20218;-89
2021/12/30 03:12:52;;;;;;;5.17;1.93;;;12.60;99.90;;;;;;5012441;28;20212;-89
2021/12/30 03:15:18;;;;;;;2.40;1.90;;;12.60;99.90;;;;;;5008505;28;20186;-89
2021/12/30 03:17:44;;;;;;;3.50;1.70;;;12.60;99.90;;;;;;5023511;28;20209;-89
2021/12/30 03:20:10;;;;;;;1.80;1.70;;;12.50;99.90;;;;;;5019775;28;20337;-89
2021/12/30 03:22:38;;;;;;;1.90;1.80;;;12.70;99.90;;;;;;5016779;28;20196;-89
2021/12/30 03:25:09;;;;;;;2.13;1.60;;;12.60;99.90;;;;;;5018375;28;20215;-89
2021/12/30 03:27:35;;;;;;;1.83;1.70;;;12.60;99.90;;;;;;5020163;28;20190;-89
2021/12/30 03:30:03;;;;;;;2.50;1.70;;;12.60;99.90;;;;;;5015100;28;20220;-89
2021/12/30 03:32:29;;;;;;;2.57;1.70;;;12.50;99.90;;;;;;5016695;28;20295;-89
2021/12/30 03:34:55;;;;;;;2.37;1.63;;;12.70;99.90;;;;;;5022306;28;20215;-89
2021/12/30 03:37:21;;;;;;;2.17;1.50;;;12.70;99.90;;;;;;5017132;28;20247;-89
2021/12/30 03:39:48;;;;;;;2.33;1.70;;;12.70;99.90;;;;;;5016737;28;20244;-89
2021/12/30 03:42:15;;;;;;;2.87;1.60;;;12.60;99.90;;;;;;5023232;28;20186;-89
2021/12/30 03:44:40;;;;;;;3.20;1.80;;;12.60;99.90;;;;;;5004718;28;20184;-90
2021/12/30 03:47:07;;;;;;;3.60;1.93;;;12.50;99.90;;;;;;5013744;28;20203;-89
2021/12/30 03:49:33;;;;;;;2.90;1.83;;;12.60;99.90;;;;;;5012209;28;20701;-88
2021/12/30 03:51:59;;;;;;;2.30;1.80;;;12.60;99.90;;;;;;5023241;28;20275;-89
2021/12/30 03:54:24;;;;;;;3.63;1.70;;;12.60;99.90;;;;;;4997178;28;20666;-89
2021/12/30 03:56:50;;;;;;;2.03;1.60;;;12.60;99.90;;;;;;5011558;28;20243;-89
2021/12/30 03:59:16;;;;;;;3.03;1.73;;;12.60;99.90;;;;;;5017501;28;20792;-89
2021/12/30 04:01:42;;;;;;;3.50;1.80;;;12.70;99.90;;;;;;4984247;28;20268;-89
2021/12/30 04:04:08;;;;;;;3.57;1.60;;;12.60;99.90;;;;;;5005548;28;20192;-88
2021/12/30 04:06:34;;;;;;;1.60;1.50;;;12.50;99.90;;;;;;5020956;28;20203;-89
2021/12/30 04:09:00;;;;;;;2.20;1.60;;;12.60;99.90;;;;;;5022560;28;20227;-89
2021/12/30 04:11:30;;;;;;;1.50;1.30;;;12.60;99.90;;;;;;5044800;28;20211;-90
2021/12/30 04:13:56;;;;;;;2.20;1.40;;;12.60;99.90;;;;;;5032460;28;20210;-90
2021/12/30 04:16:22;;;;;;;2.30;1.50;;;12.60;99.90;;;;;;5031605;28;20780;-89
2021/12/30 04:18:48;;;;;;;2.07;1.47;;;12.70;99.90;;;;;;5021976;28;20193;-89
2021/12/30 04:21:18;;;;;;;1.60;1.40;;;12.90;99.90;;;;;;5022216;28;20211;-89
2021/12/30 04:23:45;;;;;;;1.40;1.30;;;12.80;99.90;;;;;;5025212;28;20182;-89
2021/12/30 04:26:11;;;;;;;2.67;1.50;;;12.70;99.90;;;;;;5020411;28;20207;-89
2021/12/30 04:28:36;;;;;;;2.53;1.60;;;12.70;99.90;;;;;;5018646;28;20266;-89
2021/12/30 04:31:03;;;;;;;1.97;1.50;;;12.70;99.90;;;;;;4963757;28;20205;-89
2021/12/30 04:33:29;;;;;;;2.57;1.60;;;12.70;99.90;;;;;;5008641;28;20290;-89
2021/12/30 04:35:56;;;;;;;2.43;1.40;;;12.80;99.90;;;;;;4992135;28;20240;-89
2021/12/30 04:38:27;;;;;;;1.43;1.33;;;12.80;99.90;;;;;;5015707;28;20248;-89
2021/12/30 04:40:54;;;;;;;2.43;1.30;;;12.70;99.90;;;;;;5022610;28;20281;-90
2021/12/30 04:43:20;;;;;;;2.23;1.40;;;12.80;99.90;;;;;;5034125;28;20192;-89
2021/12/30 04:45:49;;;;;;;1.90;1.30;;;12.70;99.90;;;;;;5005962;28;20202;-88
2021/12/30 04:48:16;;;;;;;2.53;1.40;;;12.80;99.90;;;;;;5018184;28;20200;-88
2021/12/30 04:50:45;;;;;;;1.50;1.20;;;12.90;99.90;;;;;;5034339;28;20248;-89
2021/12/30 04:53:15;;;;;;;1.50;1.40;;;12.80;99.90;;;;;;5026516;28;20275;-88
2021/12/30 04:55:41;;;;;;;6.00;1.47;;;12.80;99.90;;;;;;5010637;28;20201;-89
2021/12/30 04:58:07;;;;;;;2.40;1.50;;;12.90;99.90;;;;;;5015113;28;20334;-89
2021/12/30 05:00:34;;;;;;;2.13;1.30;;;12.90;99.90;;;;;;5007358;28;20243;-89
2021/12/30 05:03:13;;;;;;;1.77;1.20;;;13.00;99.90;;;;;;5011132;28;20643;-89
2021/12/30 05:05:51;;;;;;;2.53;1.57;;;13.10;99.90;;;;;;5006213;28;20223;-89
2021/12/30 05:08:19;;;;;;;1.07;1.07;;;13.00;99.90;;;;;;5009307;28;20195;-88
2021/12/30 05:10:46;;;;;;;1.20;1.20;;;13.00;99.90;;;;;;4999239;28;20267;-89
2021/12/30 05:13:12;;;;;;;1.10;1.10;;;13.20;99.90;;;;;;5030382;28;20188;-89
2021/12/30 05:15:39;;;;;;;1.27;1.17;;;13.20;99.90;;;;;;5020202;28;20192;-89
2021/12/30 05:18:10;;;;;;;1.00;1.00;;;13.30;99.90;;;;;;5016322;28;20200;-89
2021/12/30 05:20:36;;;;;;;1.10;1.10;;;13.20;99.90;;;;;;5001269;28;20221;-88
2021/12/30 05:23:02;;;;;;;1.00;1.00;;;13.40;99.90;;;;;;5014798;28;20292;-89
2021/12/30 05:25:28;;;;;;;1.07;1.07;;;13.40;99.90;;;;;;5012165;28;20206;-89
2021/12/30 05:27:54;;;;;;;1.20;1.20;;;13.60;99.90;;;;;;5018307;28;20196;-90
2021/12/30 05:30:21;;;;;;;0.90;0.90;;;13.50;99.90;;;;;;5017733;28;20634;-89
2021/12/30 05:32:48;;;;;;;1.13;1.13;;;13.60;99.90;;;;;;5003186;28;20297;-88
2021/12/30 05:35:14;;;;;;;1.00;1.00;;;13.50;99.90;;;;;;5008913;28;20301;-89
2021/12/30 05:37:41;;;;;;;1.13;1.13;;;13.60;99.90;;;;;;5004091;28;20251;-89
2021/12/30 05:40:09;;;;;;;1.17;1.10;;;13.60;99.90;;;;;;5005866;28;20723;-89
2021/12/30 05:42:36;;;;;;;1.17;1.17;;;13.70;99.90;;;;;;4987647;28;20223;-89
2021/12/30 05:45:03;;;;;;;1.10;1.07;;;13.70;99.90;;;;;;4993916;28;20193;-89
2021/12/30 05:47:29;;;;;;;1.10;1.10;;;13.70;99.90;;;;;;5015063;28;20198;-89
2021/12/30 05:49:55;;;;;;;1.47;1.10;;;13.60;99.90;;;;;;5021063;28;20213;-89
2021/12/30 05:52:21;;;;;;;1.20;1.17;;;13.70;99.90;;;;;;5019584;28;20188;-89
2021/12/30 05:54:46;;;;;;;1.10;1.00;;;13.80;99.90;;;;;;5006140;28;20220;-89
2021/12/30 05:57:12;;;;;;;1.10;1.10;;;13.80;99.90;;;;;;5018333;28;20232;-88
2021/12/30 05:59:38;;;;;;;0.97;0.97;;;13.80;99.90;;;;;;5002020;28;20244;-90
2021/12/30 06:02:04;;;;;;;1.17;1.17;;;13.70;99.90;;;;;;5006422;28;20223;-89
2021/12/30 06:04:30;;;;;;;1.17;1.17;;;13.60;99.90;;;;;;5015557;28;20196;-88
2021/12/30 06:06:56;;;;;;;1.37;1.20;;;13.70;99.90;;;;;;4995193;28;20243;-89
2021/12/30 06:09:24;;;;;;;1.10;1.10;;;13.60;99.90;;;;;;5022310;28;20299;-90
2021/12/30 06:11:50;;;;;;;1.17;1.17;;;13.60;99.90;;;;;;5000777;28;20253;-90
2021/12/30 06:14:15;;;;;;;1.53;1.20;;;13.60;99.90;;;;;;4995226;28;20486;-89
2021/12/30 06:16:41;;;;;;;1.00;1.00;;;13.60;99.90;;;;;;5002757;28;20292;-89
2021/12/30 06:19:07;;;;;;;1.00;1.00;;;13.70;99.90;;;;;;5025540;28;20250;-88
2021/12/30 06:21:32;;;;;;;1.73;1.20;;;13.60;99.90;;;;;;5016788;28;20192;-89
2021/12/30 06:23:58;;;;;;;1.00;1.00;;;13.60;99.90;;;;;;5018247;28;20231;-89
2021/12/30 06:26:24;;;;;;;0.93;0.93;;;13.70;99.90;;;;;;5019985;28;20591;-88
2021/12/30 06:28:50;;;;;;;1.37;1.20;;;13.70;99.90;;;;;;5016704;28;20684;-88
2021/12/30 06:31:15;;;;;;;1.20;1.10;;;13.80;99.90;;;;;;5019862;28;20575;-89
2021/12/30 06:33:41;;;;;;;1.10;1.10;;;13.80;99.90;;;;;;5032282;28;20223;-89
2021/12/30 06:36:07;;;;;;;1.13;1.10;;;13.70;99.90;;;;;;5020381;28;20239;-89
2021/12/30 06:38:33;;;;;;;1.53;1.10;;;13.70;99.90;;;;;;5019171;28;20190;-89
2021/12/30 06:41:00;;;;;;;1.10;1.10;;;13.70;99.90;;;;;;5019538;28;20180;-89
2021/12/30 06:43:26;;;;;;;1.10;1.10;;;13.60;99.90;;;;;;5009999;28;20196;-89
2021/12/30 06:45:53;;;;;;;1.00;1.00;;;13.70;99.90;;;;;;5028851;28;20217;-88
2021/12/30 06:48:18;;;;;;;1.10;1.10;;;13.70;99.90;;;;;;5011498;28;20191;-89
2021/12/30 06:50:52;;;;;;;0.93;0.93;;;13.60;99.90;;;;;;5024954;28;20212;-89
2021/12/30 06:53:27;;;;;;;2.23;1.10;;;13.60;99.90;;;;;;5008300;28;20769;-89
2021/12/30 06:55:53;;;;;;;1.60;1.10;;;13.70;99.90;;;;;;5020480;28;20675;-90
2021/12/30 06:58:19;;;;;;;0.97;0.97;;;13.50;99.90;;;;;;5023530;28;20193;-90
2021/12/30 07:00:47;;;;;;;1.00;1.00;;;13.60;99.90;;;;;;4995249;28;20308;-88
2021/12/30 07:03:13;;;;;;;1.00;1.00;;;13.70;99.90;;;;;;5028653;28;20246;-89
2021/12/30 07:05:39;;;;;;;1.20;1.10;;;13.70;99.90;;;;;;5021525;28;20196;-90
2021/12/30 07:08:05;;;;;;;1.27;1.20;;;13.60;99.90;;;;;;5018528;28;20196;-88
2021/12/30 07:10:31;;;;;;;1.10;1.10;;;13.60;99.90;;;;;;5028924;28;20219;-88
2021/12/30 07:12:56;;;;;;;1.43;1.10;;;13.70;99.90;;;;;;5020993;28;20196;-90
2021/12/30 07:15:22;;;;;;;0.90;0.90;;;13.60;99.90;;;;;;5023097;28;20199;-89
2021/12/30 07:17:48;;;;;;;1.13;1.13;;;13.70;99.90;;;;;;5026322;28;20220;-89
2021/12/30 07:20:14;;;;;;;1.37;1.03;;;13.80;99.90;;;;;;5018895;28;20231;-89
2021/12/30 07:22:41;;;;;;;1.10;1.10;;;13.70;99.90;;;;;;5013835;28;20196;-89
2021/12/30 07:25:09;;;;;;;1.20;1.10;;;13.80;99.90;;;;;;5042160;28;20197;-91
2021/12/30 07:27:35;;;;;;;1.57;1.10;;;13.80;99.90;;;;;;5030060;28;20196;-89
2021/12/30 07:30:02;;;;;;;1.00;1.00;;;13.80;99.90;;;;;;5027291;28;20223;-89
2021/12/30 07:32:28;;;;;;;1.10;1.10;;;13.70;99.90;;;;;;5029298;28;20193;-91
2021/12/30 07:34:54;;;;;;;1.40;1.30;;;13.70;99.90;;;;;;5040183;28;20196;-91
2021/12/30 07:37:20;;;;;;;1.03;1.03;;;13.80;99.90;;;;;;5018697;28;20262;-89
2021/12/30 07:39:48;;;;;;;1.03;1.03;;;13.80;99.90;;;;;;5009188;28;20213;-89
2021/12/30 07:42:14;;;;;;;1.90;1.27;;;13.80;99.90;;;;;;5002614;28;20216;-89
2021/12/30 07:44:40;;;;;;;1.10;1.10;;;13.70;99.90;;;;;;5043086;28;20236;-90
2021/12/30 07:47:30;;;;;;;1.00;1.00;;;13.80;99.90;;;;;;5072400;22;20232;-90
2021/12/30 07:50:06;;;;;;;1.33;1.23;;;13.80;99.90;;;;;;5037284;28;20205;-90
2021/12/30 07:52:39;;;;;;;1.03;1.03;;;13.80;99.90;;;;;;5041726;28;20207;-90
2021/12/30 07:55:15;;;;;;;1.10;1.10;;;13.70;99.90;;;;;;5023044;28;20772;-90
2021/12/30 07:57:42;;;;;;;1.60;1.00;;;13.70;99.90;;;;;;5040845;28;20215;-90
2021/12/30 08:00:12;;;;;;;1.03;1.00;;;13.70;99.90;;;;;;5039391;28;20194;-89
2021/12/30 08:02:42;;;;;;;1.33;1.20;;;13.60;99.90;;;;;;5055272;28;20185;-90
2021/12/30 08:05:14;;;;;;;1.27;1.10;;;13.70;99.90;;;;;;5040169;28;20195;-90
2021/12/30 08:07:39;;;;;;;1.03;1.00;;;13.50;99.90;;;;;;5040010;28;20283;-89
2021/12/30 08:10:10;;;;;;;1.00;1.00;;;13.50;99.90;;;;;;5023592;28;20216;-90
2021/12/30 08:12:37;;;;;;;1.47;1.20;;;13.50;99.90;;;;;;5040462;28;20234;-89
2021/12/30 08:15:04;;;;;;;1.30;1.20;;;13.40;99.90;;;;;;5041516;28;20277;-90
2021/12/30 08:17:30;;;;;;;2.10;1.30;;;13.40;99.90;;;;;;5037464;28;20284;-89
2021/12/30 08:19:57;;;;;;;1.60;1.50;;;13.30;99.90;;;;;;5036587;28;20197;-90
2021/12/30 08:22:26;;;;;;;2.23;1.50;;;13.40;99.90;;;;;;5027138;28;20271;-90
2021/12/30 08:24:52;;;;;;;1.30;1.20;;;13.30;99.90;;;;;;5039900;28;20186;-89
2021/12/30 08:27:18;;;;;;;2.43;1.20;;;13.30;99.90;;;;;;5025156;28;20231;-89
2021/12/30 08:29:44;;;;;;;6.30;5.70;;;13.20;99.90;;;;;;5039372;28;20203;-86
2021/12/30 08:32:12;;;;;;;1.40;1.30;;;13.20;99.90;;;;;;5026542;28;20189;-88
2021/12/30 08:34:39;;;;;;;1.57;1.20;;;13.30;99.90;;;;;;5041523;28;20183;-88
2021/12/30 08:37:05;;;;;;;2.50;1.60;;;13.40;99.90;;;;;;5041736;28;20228;-88
2021/12/30 08:39:30;;;;;;;1.40;1.30;;;13.40;99.90;;;;;;5026482;28;20206;-88
2021/12/30 08:41:59;;;;;;;1.20;1.20;;;13.40;99.90;;;;;;5045181;28;20188;-88
2021/12/30 08:44:26;;;;;;;1.60;1.20;;;13.40;99.90;;;;;;5045884;28;20192;-88
2021/12/30 08:46:52;;;;;;;2.77;1.33;;;13.40;99.90;;;;;;5044252;28;20321;-88
2021/12/30 08:49:18;;;;;;;1.70;1.30;;;13.40;99.90;;;;;;5046049;28;20192;-88
2021/12/30 08:51:44;;;;;;;1.00;1.00;;;13.50;99.90;;;;;;5041984;28;20202;-88
2021/12/30 08:54:09;;;;;;;2.20;1.30;;;13.60;99.90;;;;;;5039337;28;20199;-89
2021/12/30 08:56:36;;;;;;;1.03;1.03;;;13.70;99.90;;;;;;5035606;28;20242;-88
2021/12/30 08:59:02;;;;;;;2.10;1.13;;;13.70;99.90;;;;;;5043889;28;20196;-88
2021/12/30 09:01:28;;;;;;;1.57;1.20;;;13.70;99.90;;;;;;5040253;28;20187;-88
2021/12/30 09:03:54;;;;;;;1.30;1.20;;;13.70;99.90;;;;;;5036232;28;20199;-88
2021/12/30 09:06:20;;;;;;;1.30;1.20;;;13.80;99.90;;;;;;5042893;28;20218;-88
2021/12/30 09:08:45;;;;;;;2.10;1.30;;;13.80;99.90;;;;;;5040514;28;20200;-88
2021/12/30 09:11:11;;;;;;;1.83;1.30;;;13.90;99.90;;;;;;5038180;28;20190;-88
2021/12/30 09:13:37;;;;;;;1.30;1.30;;;13.90;99.90;;;;;;5045115;28;20580;-88
2021/12/30 09:16:03;;;;;;;1.40;1.30;;;14.00;99.90;;;;;;5042314;28;20220;-88
2021/12/30 09:18:30;;;;;;;2.53;1.27;;;14.10;99.90;;;;;;5043081;28;20200;-87
2021/12/30 09:20:56;;;;;;;1.73;1.20;;;14.10;99.90;;;;;;5039608;28;20193;-88
2021/12/30 09:23:22;;;;;;;1.63;1.20;;;14.10;99.90;;;;;;5044571;28;20204;-88
2021/12/30 09:25:48;;;;;;;2.13;1.20;;;14.10;99.90;;;;;;5044560;28;20645;-88
2021/12/30 09:28:14;;;;;;;1.10;1.10;;;14.20;99.90;;;;;;5040818;28;20190;-88
2021/12/30 09:30:45;;;;;;;1.17;1.17;;;14.30;99.90;;;;;;5041317;28;20220;-87
2021/12/30 09:33:15;;;;;;;1.33;1.20;;;14.40;99.90;;;;;;5039757;28;20522;-86
2021/12/30 09:35:44;;;;;;;1.73;1.20;;;14.30;99.90;;;;;;5042998;28;20234;-86
2021/12/30 09:38:11;;;;;;;1.10;1.00;;;14.30;99.90;;;;;;5025917;28;20332;-86
2021/12/30 09:40:37;;;;;;;1.10;1.10;;;14.20;99.90;;;;;;5040146;28;20203;-86
2021/12/30 09:43:04;;;;;;;1.17;1.13;;;14.30;99.90;;;;;;5040372;28;20197;-86
2021/12/30 09:45:36;;;;;;;1.33;1.27;;;14.40;99.90;;;;;;5027824;28;20228;-86
2021/12/30 09:48:04;;;;;;;1.20;1.20;;;14.40;99.90;;;;;;5039316;28;20196;-87
2021/12/30 09:50:39;;;;;;;1.80;1.30;;;14.60;99.90;;;;;;5038150;28;20199;-86
2021/12/30 09:53:11;;;;;;;1.67;1.20;;;14.60;99.90;;;;;;5025657;28;20192;-86
2021/12/30 09:55:39;;;;;;;1.23;1.20;;;14.60;99.90;;;;;;5035767;28;20211;-87
2021/12/30 09:58:06;;;;;;;1.17;1.10;;;14.50;99.90;;;;;;5040537;28;20178;-87
2021/12/30 10:00:33;;;;;;;1.43;1.33;;;14.50;99.90;;;;;;5028190;28;20194;-87
2021/12/30 10:02:59;;;;;;;1.47;1.30;;;14.50;99.90;;;;;;5045557;28;20199;-87
2021/12/30 10:05:29;;;;;;;1.20;1.20;;;14.70;99.90;;;;;;5038860;28;20220;-87
2021/12/30 10:08:36;;;;;;;2.23;1.57;;;14.60;99.90;;;;;;5043207;28;20263;-87
2021/12/30 10:11:06;;;;;;;1.27;1.23;;;14.70;99.90;;;;;;4960624;28;20195;-87
2021/12/30 10:13:33;;;;;;;3.60;1.17;;;14.80;99.90;;;;;;5021648;28;20201;-87
2021/12/30 10:16:10;;;;;;;1.67;1.30;;;14.70;99.90;;;;;;5026194;28;21847;-86
2021/12/30 10:19:05;;;;;;;1.23;1.23;;;14.80;99.90;;;;;;5039144;28;20711;-87
2021/12/30 10:21:45;;;;;;;1.30;1.20;;;14.70;99.90;;;;;;5038087;28;20193;-87
2021/12/30 10:24:12;;;;;;;1.07;1.07;;;14.60;99.90;;;;;;5020682;28;20181;-87
2021/12/30 10:26:53;;;;;;;2.40;1.30;;;14.60;99.90;;;;;;5024043;28;20274;-87
2021/12/30 10:29:22;;;;;;;1.30;1.30;;;14.60;99.90;;;;;;5039226;28;20287;-87
2021/12/30 10:31:48;;;;;;;1.33;1.10;;;14.60;99.90;;;;;;5024703;28;20221;-87
2021/12/30 10:34:16;;;;;;;1.20;1.10;;;14.60;99.90;;;;;;5029530;28;20663;-86
2021/12/30 10:36:50;;;;;;;1.00;1.00;;;14.60;99.90;;;;;;5034874;28;20272;-87
2021/12/30 10:39:17;;;;;;;1.10;1.10;;;14.50;99.90;;;;;;5042283;28;20180;-87
2021/12/30 10:41:45;;;;;;;1.40;1.30;;;14.70;99.90;;;;;;5036610;28;20177;-88
2021/12/30 10:44:11;;;;;;;1.40;1.40;;;14.70;99.90;;;;;;5025433;28;20200;-87
2021/12/30 10:46:37;;;;;;;1.60;1.50;;;14.70;99.90;;;;;;5040043;28;20271;-87
2021/12/30 10:49:04;;;;;;;1.67;1.30;;;14.80;99.90;;;;;;5039541;28;20183;-87
2021/12/30 10:51:45;;;;;;;2.00;1.30;;;14.70;99.90;;;;;;5043918;28;20189;-87
2021/12/30 10:54:39;;;;;;;1.30;1.30;;;14.80;99.90;;;;;;5016363;28;20189;-87
2021/12/30 10:57:11;;;;;;;1.80;1.53;;;14.70;99.90;;;;;;5036778;28;20308;-86
2021/12/30 10:59:43;;;;;;;1.20;1.20;;;14.70;99.90;;;;;;5023033;28;20712;-86
2021/12/30 11:02:17;;;;;;;2.23;1.63;;;14.70;99.90;;;;;;5023272;28;20217;-87
2021/12/30 11:04:57;;;;;;;1.30;1.30;;;14.70;99.90;;;;;;5042432;28;20187;-86
2021/12/30 11:07:48;;;;;;;2.17;1.40;;;14.60;99.90;;;;;;5043266;28;20292;-86
2021/12/30 11:10:16;;;;;;;1.37;1.23;;;14.50;99.90;;;;;;5042997;28;20205;-86
2021/12/30 11:12:45;;;;;;;1.23;1.23;;;14.50;99.90;;;;;;5042621;28;20193;-86
2021/12/30 11:15:32;;;;;;;1.40;1.30;;;14.60;99.90;;;;;;5042290;28;20190;-87
2021/12/30 11:18:13;;;;;;;1.23;1.20;;;14.60;99.90;;;;;;5040353;28;20208;-86
2021/12/30 11:20:42;;;;;;;1.20;1.20;;;14.60;99.90;;;;;;5037005;28;20193;-86
2021/12/30 11:23:08;;;;;;;2.30;1.63;;;14.60;99.90;;;;;;5030323;28;20190;-86
2021/12/30 11:25:35;;;;;;;1.40;1.30;;;14.70;99.90;;;;;;5036277;28;20217;-87
2021/12/30 11:28:01;;;;;;;1.63;1.20;;;14.60;99.90;;;;;;5036829;28;20199;-87
2021/12/30 11:30:27;;;;;;;1.40;1.30;;;14.60;99.90;;;;;;5033301;28;20184;-87
2021/12/30 11:32:53;;;;;;;1.50;1.40;;;14.70;99.90;;;;;;5024278;28;20252;-86
2021/12/30 11:35:21;;;;;;;2.00;1.40;;;14.60;99.90;;;;;;5037803;28;20543;-87
2021/12/30 11:37:48;;;;;;;1.63;1.53;;;14.60;99.90;;;;;;5031083;28;20235;-86
2021/12/30 11:40:18;;;;;;;1.37;1.30;;;14.80;99.90;;;;;;5035452;28;20262;-87
2021/12/30 11:42:56;;;;;;;1.47;1.37;;;14.60;99.90;;;;;;5032566;28;20644;-86
2021/12/30 11:45:32;;;;;;;1.50;1.40;;;14.60;99.90;;;;;;5041436;28;20210;-86
2021/12/30 11:48:00;;;;;;;1.77;1.63;;;14.50;99.90;;;;;;5049146;28;20185;-87
2021/12/30 11:50:34;;;;;;;2.30;1.33;;;14.50;99.90;;;;;;5041388;28;20185;-83
2021/12/30 11:53:26;;;;;;;1.10;1.10;;;14.50;99.90;;;;;;5037668;28;20246;-86
2021/12/30 11:55:54;;;;;;;1.50;1.40;;;14.50;99.90;;;;;;5041664;28;20207;-86
2021/12/30 12:01:04;;;;;;;1.40;1.30;;;14.40;99.90;;;;;;5038075;28;20196;-87
2021/12/30 12:03:34;;;;;;;1.47;1.27;;;14.50;99.90;;;;;;5058180;28;20220;-87
2021/12/30 12:06:05;;;;;;;1.27;1.20;;;14.60;99.90;;;;;;5041453;28;20211;-89
2021/12/30 12:08:43;;;;;;;1.10;1.10;;;14.60;99.90;;;;;;5043534;28;20268;-85
2021/12/30 12:11:12;;;;;;;1.13;1.13;;;14.50;99.90;;;;;;5041208;28;20184;-85
2021/12/30 12:13:41;;;;;;;2.17;1.40;;;14.60;99.90;;;;;;5044779;28;20617;-85
2021/12/30 12:16:07;;;;;;;1.30;1.30;;;14.60;99.90;;;;;;5036291;28;20214;-86
2021/12/30 12:18:33;;;;;;;1.40;1.30;;;14.50;99.90;;;;;;5033937;28;20256;-86
2021/12/30 12:21:02;;;;;;;1.43;1.30;;;14.50;99.90;;;;;;5043676;28;20193;-86
2021/12/30 12:23:36;;;;;;;1.63;1.43;;;14.50;99.90;;;;;;5046313;28;20233;-86
2021/12/30 12:26:20;;;;;;;1.50;1.40;;;14.50;99.90;;;;;;5038629;28;20223;-86
2021/12/30 12:28:48;;;;;;;2.30;1.77;;;14.60;99.90;;;;;;5049099;28;20195;-86
2021/12/30 12:31:14;;;;;;;1.53;1.43;;;14.60;99.90;;;;;;5042232;28;20516;-85
2021/12/30 12:33:42;;;;;;;1.50;1.40;;;14.50;99.90;;;;;;5045058;28;20181;-86
2021/12/30 12:36:14;;;;;;;1.70;1.60;;;14.50;99.90;;;;;;5041277;28;20227;-87
2021/12/30 12:38:46;;;;;;;1.47;1.40;;;14.50;99.90;;;;;;5036385;28;20331;-86
2021/12/30 12:41:29;;;;;;;1.47;1.37;;;14.60;99.90;;;;;;5042149;28;20195;-86
2021/12/30 12:44:21;;;;;;;1.87;1.50;;;14.70;99.90;;;;;;5041010;28;20742;-86
2021/12/30 12:46:49;;;;;;;2.30;1.50;;;14.60;99.90;;;;;;5059222;28;20218;-87
2021/12/30 12:49:37;;;;;;;1.40;1.30;;;14.40;99.90;;;;;;5041143;28;20222;-86
2021/12/30 12:52:05;;;;;;;2.20;1.70;;;14.30;99.90;;;;;;5035036;28;20243;-87
2021/12/30 12:54:53;;;;;;;2.47;1.60;;;14.30;99.90;;;;;;5038021;28;20251;-87
2021/12/30 12:57:21;;;;;;;1.60;1.50;;;14.20;99.90;;;;;;5037159;28;20212;-87
2021/12/30 12:59:48;;;;;;;3.33;1.47;;;14.10;99.90;;;;;;5041994;28;20197;-87